Time;durP1;ratioP1;P1;durP2;ratioP2;P2;SDS_P1;SDS_P2;PMS_P1;PMS_P2;Temp;Humidity;BMP_temperature;BMP_pressure;BME280_temperature;BME280_humidity;BME280_pressure;Samples;Min_cycle;Max_cycle;Signal;HPM_P1;HPM_P2
2021/10/25 00:01:52;;;;;;;24.47;10.80;;;;;;;2.37;64.06;101031.64;1781527;79;21029;-73
2021/10/25 00:04:21;;;;;;;31.10;12.30;;;;;;;2.36;64.02;101038.16;1781761;79;21026;-74
2021/10/25 00:06:51;;;;;;;34.38;13.95;;;;;;;2.35;63.97;101039.75;1784080;79;21083;-74
2021/10/25 00:09:24;;;;;;;29.15;12.25;;;;;;;2.33;63.94;101035.05;1779938;79;21636;-73
2021/10/25 00:11:53;;;;;;;30.97;10.50;;;;;;;2.29;63.95;101038.75;1782523;79;21574;-73
2021/10/25 00:14:19;;;;;;;23.32;10.15;;;;;;;2.26;64.00;101042.77;1781539;79;21015;-74
2021/10/25 00:16:48;;;;;;;18.98;9.13;;;;;;;2.20;64.13;101039.61;1780608;79;21553;-73
2021/10/25 00:19:20;;;;;;;15.60;6.78;;;;;;;2.11;64.44;101041.80;1782570;79;21007;-74
2021/10/25 00:21:50;;;;;;;12.53;6.08;;;;;;;2.09;64.55;101043.06;1780503;79;21022;-73
2021/10/25 00:24:20;;;;;;;14.28;5.70;;;;;;;2.06;64.56;101045.72;1779050;79;21609;-73
2021/10/25 00:26:48;;;;;;;12.10;5.97;;;;;;;2.03;64.50;101042.91;1784136;79;21521;-74
2021/10/25 00:29:20;;;;;;;10.82;5.78;;;;;;;2.02;64.59;101039.89;1780277;79;21054;-74
2021/10/25 00:31:49;;;;;;;14.25;4.95;;;;;;;1.98;64.74;101036.50;1760205;79;21065;-73
2021/10/25 00:34:21;;;;;;;10.98;4.90;;;;;;;1.92;64.89;101036.34;1733239;82;21032;-74
2021/10/25 00:36:51;;;;;;;9.60;4.75;;;;;;;1.89;64.98;101034.59;1782538;79;21150;-75
2021/10/25 00:39:18;;;;;;;7.72;4.20;;;;;;;1.80;65.16;101033.52;1782919;79;21517;-74
2021/10/25 00:41:49;;;;;;;11.63;5.62;;;;;;;1.73;65.34;101040.91;1736997;80;21024;-73
2021/10/25 00:44:19;;;;;;;8.03;3.87;;;;;;;1.67;65.61;101042.61;1752787;79;21065;-73
2021/10/25 00:46:48;;;;;;;11.75;4.30;;;;;;;1.67;65.62;101045.88;1767093;79;21053;-73
2021/10/25 00:49:15;;;;;;;9.78;4.45;;;;;;;1.66;65.64;101042.84;1784946;79;21058;-73
2021/10/25 00:51:41;;;;;;;9.03;4.53;;;;;;;1.65;65.64;101042.03;1712187;83;21599;-75
2021/10/25 00:54:13;;;;;;;16.42;4.72;;;;;;;1.64;65.59;101043.06;1733401;82;21045;-74
2021/10/25 00:56:42;;;;;;;10.80;5.10;;;;;;;1.63;65.64;101044.66;1734146;82;21527;-73
2021/10/25 00:59:10;;;;;;;9.13;4.55;;;;;;;1.60;65.66;101036.43;1732478;82;21050;-74
2021/10/25 01:01:40;;;;;;;11.97;4.37;;;;;;;1.59;65.71;101041.55;1781072;79;21006;-73
2021/10/25 01:04:16;;;;;;;7.58;4.35;;;;;;;1.58;65.72;101045.33;1785051;79;21030;-74
2021/10/25 01:06:42;;;;;;;8.50;4.70;;;;;;;1.55;65.82;101049.30;1708127;82;21023;-74
2021/10/25 01:09:14;;;;;;;15.70;7.67;;;;;;;1.52;65.92;101048.94;1782301;79;21541;-73
2021/10/25 01:11:43;;;;;;;22.87;11.08;;;;;;;1.51;66.00;101048.62;1787936;78;20986;-73
2021/10/25 01:14:15;;;;;;;26.37;12.98;;;;;;;1.50;66.01;101054.56;1788311;79;21010;-74
2021/10/25 01:16:42;;;;;;;28.07;12.80;;;;;;;1.33;66.08;101048.33;1755712;79;21541;-74
2021/10/25 01:19:09;;;;;;;24.87;12.18;;;;;;;1.21;66.48;101055.00;1785644;79;22136;-74
2021/10/25 01:21:36;;;;;;;21.62;10.35;;;;;;;1.19;66.75;101052.20;1758252;79;21075;-74
2021/10/25 01:24:07;;;;;;;20.12;9.90;;;;;;;1.18;66.77;101051.36;1777963;79;21475;-74
2021/10/25 01:26:34;;;;;;;15.43;8.15;;;;;;;1.08;66.87;101057.80;1784109;79;20994;-73
2021/10/25 01:29:06;;;;;;;19.57;8.10;;;;;;;1.03;67.15;101061.17;1770315;79;21049;-73
2021/10/25 01:31:32;;;;;;;16.12;8.33;;;;;;;1.04;67.24;101057.95;1771956;79;21002;-73
2021/10/25 01:34:02;;;;;;;17.85;8.48;;;;;;;1.04;67.32;101058.76;1767702;80;21762;-73
2021/10/25 01:36:30;;;;;;;16.93;9.00;;;;;;;1.06;67.38;101069.39;1766880;80;21519;-73
2021/10/25 01:38:59;;;;;;;15.95;7.92;;;;;;;1.06;67.39;101067.52;1762151;80;21086;-73
2021/10/25 01:41:27;;;;;;;16.32;8.00;;;;;;;1.05;67.39;101064.52;1743314;80;21057;-74
2021/10/25 01:43:57;;;;;;;16.10;7.58;;;;;;;1.07;67.38;101080.58;1766995;80;21519;-73
2021/10/25 01:46:25;;;;;;;17.82;8.45;;;;;;;1.06;67.31;101082.97;1769388;80;21151;-72
2021/10/25 01:48:54;;;;;;;15.40;7.37;;;;;;;1.04;67.34;101084.55;1770878;79;21043;-72
2021/10/25 01:51:26;;;;;;;16.12;7.47;;;;;;;1.03;67.19;101082.05;1761607;80;21002;-73
2021/10/25 01:53:53;;;;;;;27.90;11.38;;;;;;;0.90;67.04;101085.17;1743629;80;21034;-73
2021/10/25 01:56:26;;;;;;;40.05;16.35;;;;;;;0.75;67.34;101096.28;1737597;81;20990;-73
2021/10/25 01:59:00;;;;;;;51.53;19.67;;;;;;;0.63;67.61;101095.31;1764864;80;21101;-72
2021/10/25 02:01:26;;;;;;;48.52;19.45;;;;;;;0.53;67.99;101099.84;1768087;80;20995;-73
2021/10/25 02:03:52;;;;;;;53.23;19.75;;;;;;;0.44;68.35;101091.94;1768892;80;21030;-72
2021/10/25 02:06:21;;;;;;;50.67;19.73;;;;;;;0.43;68.53;101105.17;1768320;80;21010;-73
2021/10/25 02:08:51;;;;;;;57.23;22.13;;;;;;;0.40;68.55;101106.95;1769143;80;21006;-72
2021/10/25 02:11:25;;;;;;;65.12;24.25;;;;;;;0.39;68.80;101102.59;1765629;80;20892;-73
2021/10/25 02:13:56;;;;;;;66.07;25.05;;;;;;;0.41;68.92;101109.97;1771599;80;21506;-72
2021/10/25 02:16:23;;;;;;;110.12;39.53;;;;;;;0.44;68.96;101106.86;1768862;80;21003;-74
2021/10/25 02:18:52;;;;;;;102.53;35.15;;;;;;;0.41;69.01;101105.09;1770145;80;21478;-73
2021/10/25 02:21:24;;;;;;;102.85;37.67;;;;;;;0.31;69.09;101110.93;1765155;80;21550;-74
2021/10/25 02:23:51;;;;;;;129.20;41.15;;;;;;;0.16;69.29;101107.95;1770248;80;21541;-73
2021/10/25 02:26:22;;;;;;;117.30;41.98;;;;;;;0.10;69.53;101111.52;1734208;80;21062;-73
2021/10/25 02:28:49;;;;;;;100.60;36.88;;;;;;;0.11;69.70;101111.81;1769716;80;21062;-73
2021/10/25 02:31:21;;;;;;;93.10;30.35;;;;;;;0.10;69.81;101108.26;1769430;79;21038;-72
2021/10/25 02:33:53;;;;;;;70.22;24.82;;;;;;;0.14;69.90;101115.45;1745778;80;21089;-72
2021/10/25 02:36:24;;;;;;;45.43;17.57;;;;;;;0.18;70.04;101116.71;1759466;80;21526;-72
2021/10/25 02:38:52;;;;;;;35.17;13.75;;;;;;;0.23;70.00;101120.98;1767694;80;20991;-73
2021/10/25 02:41:20;;;;;;;29.23;11.30;;;;;;;0.27;69.95;101120.55;1767895;80;21006;-73
2021/10/25 02:43:50;;;;;;;27.45;10.58;;;;;;;0.29;69.88;101114.40;1752972;80;21540;-72
2021/10/25 02:46:17;;;;;;;23.98;10.23;;;;;;;0.32;69.86;101124.81;1767343;80;21470;-73
2021/10/25 02:48:48;;;;;;;17.77;8.45;;;;;;;0.33;69.80;101125.12;1767453;80;21031;-73
2021/10/25 02:51:18;;;;;;;18.87;9.05;;;;;;;0.35;69.75;101125.75;1767065;80;21471;-73
2021/10/25 02:53:48;;;;;;;17.98;8.03;;;;;;;0.35;69.67;101129.30;1768017;80;21346;-74
2021/10/25 02:56:20;;;;;;;18.70;8.68;;;;;;;0.34;69.64;101132.23;1746470;80;21010;-74
2021/10/25 02:58:52;;;;;;;18.57;8.75;;;;;;;0.31;69.53;101133.98;1744982;80;21034;-74
2021/10/25 03:01:26;;;;;;;23.40;10.75;;;;;;;0.18;69.50;101139.76;1752185;80;21002;-74
2021/10/25 03:03:56;;;;;;;22.62;10.65;;;;;;;-0.03;69.64;101137.58;1743123;80;21007;-74
2021/10/25 03:06:25;;;;;;;22.13;10.65;;;;;;;-0.21;70.01;101137.38;1768527;80;21061;-74
2021/10/25 03:08:55;;;;;;;22.27;10.50;;;;;;;-0.34;70.34;101140.92;1770047;80;20995;-73
2021/10/25 03:11:21;;;;;;;42.00;15.93;;;;;;;-0.43;70.66;101140.28;1767697;80;21582;-74
2021/10/25 03:13:53;;;;;;;29.00;11.05;;;;;;;-0.47;70.91;101141.72;1767258;80;20951;-74
2021/10/25 03:16:22;;;;;;;32.23;13.03;;;;;;;-0.49;71.18;101139.22;1768683;80;20946;-73
2021/10/25 03:18:52;;;;;;;41.85;15.78;;;;;;;-0.44;71.15;101146.72;1764880;80;21590;-73
2021/10/25 03:21:19;;;;;;;38.05;14.05;;;;;;;-0.39;71.07;101144.23;1767394;80;21030;-74
2021/10/25 03:23:45;;;;;;;32.40;13.03;;;;;;;-0.35;70.93;101141.43;1742606;80;21046;-72
2021/10/25 03:26:16;;;;;;;32.80;12.13;;;;;;;-0.35;70.85;101142.78;1771417;80;21065;-72
2021/10/25 03:28:46;;;;;;;31.75;12.88;;;;;;;-0.37;70.88;101144.35;1741915;80;21565;-73
2021/10/25 03:31:13;;;;;;;26.10;11.08;;;;;;;-0.42;70.97;101147.36;1767408;79;21534;-73
2021/10/25 03:33:48;;;;;;;22.35;11.30;;;;;;;-0.47;71.10;101149.84;1768183;80;21022;-73
2021/10/25 03:36:17;;;;;;;27.73;10.95;;;;;;;-0.53;71.36;101154.23;1756956;80;20995;-73
2021/10/25 03:38:48;;;;;;;29.85;11.90;;;;;;;-0.56;71.64;101145.98;1743399;80;21058;-73
2021/10/25 03:41:22;;;;;;;23.20;11.75;;;;;;;-0.51;71.76;101139.94;1767449;80;21499;-72
2021/10/25 03:43:49;;;;;;;28.30;12.03;;;;;;;-0.46;71.66;101144.77;1735214;80;21007;-73
2021/10/25 03:46:38;;;;;;;26.67;10.80;;;;;;;-0.52;71.57;101145.90;1767807;80;21065;-72
2021/10/25 03:51:39;;;;;;;30.45;13.30;;;;;;;-0.66;71.94;101145.03;1761334;80;21158;-75
2021/10/25 03:54:25;;;;;;;35.10;13.98;;;;;;;-0.66;72.19;101145.54;1767984;80;21066;-73
2021/10/25 03:57:00;;;;;;;33.00;12.90;;;;;;;-0.61;72.24;101147.12;1733949;80;21046;-73
2021/10/25 04:12:51;;;;;;;46.33;17.80;;;;;;;-0.63;71.98;101149.19;1768278;80;21117;-73
2021/10/25 04:12:59;;;;;;;59.38;21.97;;;;;;;-0.76;72.16;101153.55;1770165;80;21054;-73
2021/10/25 04:29:29;;;;;;;35.05;13.80;;;;;;;-0.90;72.99;101166.20;1747238;80;21034;-73
2021/10/25 04:31:54;;;;;;;26.75;13.93;;;;;;;-0.85;72.95;101169.65;1766883;80;21128;-73
2021/10/25 04:34:31;;;;;;;30.52;12.37;;;;;;;-0.85;72.76;101166.94;1765624;80;21514;-73
2021/10/25 04:37:22;;;;;;;24.25;10.35;;;;;;;-0.89;72.68;101167.05;1769953;80;21081;-73
2021/10/25 04:39:50;;;;;;;25.48;11.33;;;;;;;-0.94;72.84;101173.08;1759035;80;21507;-74
2021/10/25 04:42:17;;;;;;;28.00;12.43;;;;;;;-0.92;73.01;101167.45;1770177;80;21035;-73
2021/10/25 04:44:47;;;;;;;32.35;13.18;;;;;;;-0.87;73.06;101167.69;1769286;80;21048;-73
2021/10/25 04:47:15;;;;;;;27.35;13.32;;;;;;;-0.81;72.97;101172.28;1752153;80;21476;-74
2021/10/25 04:49:47;;;;;;;28.38;12.20;;;;;;;-0.77;72.84;101173.52;1768960;79;20975;-73
2021/10/25 04:52:23;;;;;;;23.62;10.90;;;;;;;-0.78;72.58;101172.37;1764157;80;21049;-72
2021/10/25 04:54:49;;;;;;;25.43;10.98;;;;;;;-0.80;72.56;101182.59;1769398;80;21074;-73
2021/10/25 04:57:17;;;;;;;22.90;9.90;;;;;;;-0.87;72.59;101189.34;1768130;80;21125;-73
2021/10/25 04:59:44;;;;;;;26.20;11.12;;;;;;;-0.92;72.75;101189.11;1743383;80;21105;-73
2021/10/25 05:02:14;;;;;;;22.13;10.50;;;;;;;-0.92;72.94;101191.81;1739622;81;21070;-73
2021/10/25 05:04:48;;;;;;;31.77;11.03;;;;;;;-0.93;73.06;101194.19;1752668;80;21054;-74
2021/10/25 05:07:17;;;;;;;24.27;12.75;;;;;;;-0.97;73.18;101193.75;1767486;80;22131;-73
2021/10/25 05:09:47;;;;;;;27.90;13.72;;;;;;;-0.93;73.47;101207.72;1770168;80;21608;-73
2021/10/25 05:12:13;;;;;;;31.37;14.75;;;;;;;-0.85;73.69;101204.84;1769063;80;21513;-72
2021/10/25 05:14:43;;;;;;;26.82;11.78;;;;;;;-0.76;73.56;101207.70;1764895;79;21723;-73
2021/10/25 05:17:11;;;;;;;29.10;12.60;;;;;;;-0.66;73.37;101208.66;1734365;80;21059;-73
2021/10/25 05:19:40;;;;;;;30.08;12.82;;;;;;;-0.56;73.24;101218.30;1771489;80;21050;-74
2021/10/25 05:22:11;;;;;;;35.47;15.27;;;;;;;-0.48;73.10;101218.61;1770132;80;21031;-72
2021/10/25 05:24:42;;;;;;;79.72;26.85;;;;;;;-0.40;73.01;101223.33;1767508;80;21023;-73
2021/10/25 05:27:11;;;;;;;111.00;36.10;;;;;;;-0.31;73.02;101222.63;1768842;80;21075;-73
2021/10/25 05:29:41;;;;;;;104.20;36.25;;;;;;;-0.22;72.92;101223.24;1766859;80;21019;-73
2021/10/25 05:32:09;;;;;;;100.35;33.63;;;;;;;-0.15;72.83;101224.09;1772362;80;21049;-73
2021/10/25 05:34:36;;;;;;;96.63;33.08;;;;;;;-0.08;72.74;101225.45;1755181;80;21897;-72
2021/10/25 05:37:04;;;;;;;115.50;37.50;;;;;;;-0.01;72.76;101224.95;1776203;80;21010;-73
2021/10/25 05:39:32;;;;;;;92.37;36.95;;;;;;;0.08;72.67;101230.17;1753471;80;21038;-73
2021/10/25 05:42:09;;;;;;;114.32;43.42;;;;;;;0.18;72.75;101237.88;1756940;80;21523;-73
2021/10/25 05:44:38;;;;;;;86.12;34.63;;;;;;;0.27;72.66;101242.07;1767992;80;20986;-73
2021/10/25 05:47:07;;;;;;;58.60;25.15;;;;;;;0.35;72.62;101241.86;1753800;80;21072;-73
2021/10/25 05:49:36;;;;;;;55.40;23.02;;;;;;;0.45;72.61;101247.37;1775246;80;21066;-73
2021/10/25 05:52:06;;;;;;;55.20;25.50;;;;;;;0.54;72.38;101246.63;1769262;80;21503;-72
2021/10/25 05:54:34;;;;;;;49.75;22.07;;;;;;;0.60;72.29;101249.85;1693453;83;21325;-72
2021/10/25 05:57:15;;;;;;;63.45;27.30;;;;;;;0.65;72.09;101257.39;1762489;80;21062;-73
2021/10/25 05:59:53;;;;;;;60.08;23.45;;;;;;;0.63;72.08;101254.88;1774872;80;21046;-72
2021/10/25 06:02:35;;;;;;;45.50;21.35;;;;;;;0.64;72.26;101259.25;1753172;81;21038;-74
2021/10/25 06:05:08;;;;;;;40.98;17.62;;;;;;;0.66;72.27;101262.59;1768036;80;21578;-74
2021/10/25 06:07:40;;;;;;;44.50;19.10;;;;;;;0.62;72.24;101269.48;1765984;80;21069;-72
2021/10/25 06:10:09;;;;;;;40.45;17.30;;;;;;;0.57;72.38;101267.40;1771388;79;21014;-73
2021/10/25 06:12:44;;;;;;;39.65;17.75;;;;;;;0.54;72.54;101263.75;1773123;80;21019;-73
2021/10/25 06:15:17;;;;;;;48.45;18.82;;;;;;;0.53;72.59;101269.39;1772732;80;21085;-74
2021/10/25 06:17:58;;;;;;;42.40;19.00;;;;;;;0.51;72.59;101272.84;1767114;80;21082;-74
2021/10/25 06:20:27;;;;;;;40.78;19.62;;;;;;;0.52;72.54;101273.13;1770778;79;21030;-73
2021/10/25 06:23:01;;;;;;;44.30;19.85;;;;;;;0.60;72.65;101280.55;1770127;80;20979;-74
2021/10/25 06:25:36;;;;;;;44.15;19.95;;;;;;;0.65;72.67;101281.80;1767099;80;21053;-74
2021/10/25 06:28:09;;;;;;;41.15;19.77;;;;;;;0.75;72.83;101284.09;1770989;79;21670;-74
2021/10/25 06:30:42;;;;;;;52.75;21.35;;;;;;;0.85;72.70;101285.84;1772150;80;21066;-74
2021/10/25 06:33:14;;;;;;;41.50;18.70;;;;;;;0.93;72.54;101278.83;1692993;83;21089;-74
2021/10/25 06:35:50;;;;;;;42.80;22.00;;;;;;;1.05;72.51;101284.45;1730465;81;21046;-74
2021/10/25 06:38:19;;;;;;;43.95;21.42;;;;;;;1.14;72.49;101289.64;1768786;80;21258;-73
2021/10/25 06:40:48;;;;;;;52.60;22.37;;;;;;;1.21;72.37;101287.20;1775830;80;21061;-73
2021/10/25 06:43:13;;;;;;;54.98;22.42;;;;;;;1.32;72.19;101284.87;1768329;80;21061;-74
2021/10/25 06:45:43;;;;;;;53.20;21.90;;;;;;;1.42;72.03;101290.69;1772520;79;21026;-72
2021/10/25 06:48:16;;;;;;;50.05;20.23;;;;;;;1.55;71.93;101291.70;1773825;80;21034;-72
2021/10/25 06:50:45;;;;;;;46.65;20.75;;;;;;;1.72;71.85;101291.19;1772119;80;21119;-72
2021/10/25 06:53:17;;;;;;;49.83;19.25;;;;;;;1.89;71.46;101291.00;1780809;80;21483;-72
2021/10/25 06:55:58;;;;;;;49.83;19.82;;;;;;;2.05;71.17;101294.23;1750378;80;21554;-72
2021/10/25 06:58:26;;;;;;;45.85;20.25;;;;;;;2.17;70.85;101295.20;1689661;83;21026;-72
2021/10/25 07:00:57;;;;;;;44.05;18.35;;;;;;;2.33;70.70;101297.08;1690926;84;21546;-72
2021/10/25 07:03:26;;;;;;;50.40;21.55;;;;;;;2.53;70.34;101292.84;1696038;82;21038;-72
2021/10/25 07:05:55;;;;;;;51.73;21.37;;;;;;;2.69;69.67;101301.50;1767388;80;21022;-72
2021/10/25 07:08:22;;;;;;;44.45;20.97;;;;;;;2.78;69.43;101294.70;1766146;80;21086;-71
2021/10/25 07:10:50;;;;;;;38.73;18.60;;;;;;;2.89;69.00;101291.78;1760165;80;20987;-72
2021/10/25 07:13:19;;;;;;;37.35;15.95;;;;;;;2.98;68.66;101296.93;1766516;80;21124;-72
2021/10/25 07:16:05;;;;;;;30.08;15.23;;;;;;;3.08;68.38;101290.44;1769122;80;21534;-72
2021/10/25 07:18:38;;;;;;;16.32;8.88;;;;;;;3.20;67.88;101290.52;1753501;80;21030;-72
2021/10/25 07:21:32;;;;;;;16.25;6.95;;;;;;;3.34;67.27;101295.28;1686255;84;21491;-73
2021/10/25 07:26:07;;;;;;;17.37;8.95;;;;;;;3.47;65.54;101288.83;1724054;82;22103;-73
2021/10/25 08:02:39;;;;;;;21.60;9.48;;;;;;;5.08;58.66;101298.81;1772057;80;21082;-73
2021/10/25 08:12:30;;;;;;;12.90;5.78;;;;;;;5.23;56.00;101298.88;1740307;80;21049;-73
2021/10/25 08:15:10;;;;;;;12.82;4.28;;;;;;;5.28;55.77;101297.63;1773686;80;21022;-73
2021/10/25 08:17:50;;;;;;;6.53;4.20;;;;;;;5.38;55.77;101294.79;1772920;79;20994;-74
2021/10/25 08:20:16;;;;;;;13.38;6.08;;;;;;;5.49;55.26;101296.69;1717060;82;21064;-73
2021/10/25 08:22:45;;;;;;;8.85;4.87;;;;;;;5.59;54.51;101296.05;1772958;80;21074;-73
2021/10/25 08:25:11;;;;;;;6.78;4.08;;;;;;;5.59;54.22;101299.62;1706205;82;20971;-74
2021/10/25 08:27:49;;;;;;;17.40;8.33;;;;;;;5.69;54.69;101295.42;1772559;79;21498;-73
2021/10/25 08:30:21;;;;;;;16.00;6.78;;;;;;;5.91;54.99;101294.73;1767101;80;20992;-73
2021/10/25 08:33:22;;;;;;;;;;;;;;;;;;;;;
2021/10/25 08:35:53;;;;;;;13.03;5.75;;;;;;;6.26;53.17;101283.34;1684464;82;21469;-72
2021/10/25 08:41:25;;;;;;;9.98;5.20;;;;;;;6.31;52.61;101280.14;1773642;80;21042;-73
2021/10/25 08:43:59;;;;;;;16.37;7.62;;;;;;;6.41;52.77;101285.50;1769911;80;21038;-73
2021/10/25 08:46:30;;;;;;;13.98;7.42;;;;;;;6.56;52.21;101280.28;1770792;80;21009;-72
2021/10/25 08:49:08;;;;;;;13.60;7.45;;;;;;;6.58;51.64;101278.09;1773899;80;21043;-74
2021/10/25 08:51:40;;;;;;;15.13;7.45;;;;;;;6.60;51.67;101271.03;1766135;80;20987;-74
2021/10/25 08:54:10;;;;;;;15.13;6.62;;;;;;;6.67;51.47;101274.97;1723202;82;21080;-73
2021/10/25 08:56:42;;;;;;;14.38;6.33;;;;;;;6.69;50.92;101273.62;1773953;80;20979;-74
2021/10/25 08:59:11;;;;;;;19.32;8.48;;;;;;;6.78;50.83;101267.18;1723864;82;21044;-73
2021/10/25 09:01:47;;;;;;;29.27;8.40;;;;;;;6.84;50.36;101269.99;1776516;80;21105;-73
2021/10/25 09:04:19;;;;;;;18.57;8.38;;;;;;;6.79;50.03;101272.13;1767500;80;20990;-73
2021/10/25 09:06:51;;;;;;;16.47;8.13;;;;;;;6.88;50.80;101280.19;1720632;82;21112;-72
2021/10/25 10:08:21;;;;;;;16.02;5.62;;;;;;;8.58;44.74;101242.20;1664976;85;21593;-65
2021/10/25 10:10:50;;;;;;;12.30;5.72;;;;;;;8.72;45.30;101242.00;1673232;84;21575;-69
2021/10/25 10:13:22;;;;;;;12.13;5.37;;;;;;;8.98;44.99;101239.95;1658822;85;21036;-68
2021/10/25 10:16:07;;;;;;;16.82;5.80;;;;;;;9.19;44.07;101236.77;1642994;85;21091;-65
2021/10/25 10:18:35;;;;;;;19.57;6.22;;;;;;;9.31;43.11;101234.32;1638962;85;21076;-69
2021/10/25 10:21:20;;;;;;;15.85;6.45;;;;;;;9.40;43.63;101228.56;1668593;84;22144;-68
2021/10/25 10:23:52;;;;;;;17.07;6.47;;;;;;;9.57;43.10;101223.40;1713850;82;21508;-69
2021/10/25 10:26:19;;;;;;;16.50;6.20;;;;;;;9.79;42.41;101223.14;1668383;85;21505;-66
2021/10/25 10:28:50;;;;;;;15.80;6.67;;;;;;;10.13;42.40;101216.30;1674799;85;21478;-68
2021/10/25 10:31:21;;;;;;;13.05;5.90;;;;;;;10.55;41.57;101223.17;1650581;85;21071;-68
2021/10/25 10:33:54;;;;;;;9.75;5.53;;;;;;;10.82;40.89;101221.45;1697788;84;21072;-68
2021/10/25 10:36:31;;;;;;;14.07;6.33;;;;;;;11.03;40.10;101218.64;1612227;88;21302;-65
2021/10/25 10:39:16;;;;;;;10.08;5.58;;;;;;;10.97;39.60;101213.42;1640089;85;21086;-69
2021/10/25 10:42:05;;;;;;;12.78;5.80;;;;;;;10.89;39.62;101207.38;1691353;84;21058;-65
2021/10/25 10:44:34;;;;;;;14.58;6.30;;;;;;;10.81;39.56;101206.58;1660909;84;21546;-65
2021/10/25 10:47:10;;;;;;;14.60;5.55;;;;;;;10.65;38.88;101201.64;1664634;84;21085;-71
2021/10/25 10:49:42;;;;;;;11.05;4.90;;;;;;;10.43;39.07;101218.76;1645616;86;21041;-67
2021/10/25 11:00:22;;;;;;;9.60;4.58;;;;;;;10.35;38.71;101209.67;1652625;86;21583;-66
2021/10/25 11:02:53;;;;;;;13.68;5.60;;;;;;;10.38;39.20;101211.88;1647809;86;21027;-67
2021/10/25 11:05:36;;;;;;;13.80;6.28;;;;;;;10.47;39.16;101210.22;1641318;86;21057;-69
2021/10/25 11:08:05;;;;;;;;;;;;;;;10.62;39.31;101207.17;1646675;86;21063;-65
2021/10/25 11:10:32;;;;;;;11.65;5.37;;;;;;;10.76;39.08;101199.70;1659251;85;20187;-67
2021/10/25 11:13:12;;;;;;;11.30;5.90;;;;;;;10.83;39.50;101204.38;1677083;85;21650;-65
2021/10/25 11:15:48;;;;;;;9.75;6.12;;;;;;;10.94;39.40;101201.84;1671055;85;21066;-67
2021/10/25 11:18:11;;;;;;;13.22;5.42;;;;;;;11.08;39.05;101205.38;1608973;85;21022;-67
2021/10/25 11:20:37;;;;;;;13.70;5.42;;;;;;;11.20;38.45;101196.22;1660326;85;21173;-67
2021/10/25 11:23:07;;;;;;;9.13;4.87;;;;;;;11.31;37.63;101200.31;1639709;85;21080;-68
2021/10/25 11:25:38;;;;;;;15.85;6.40;;;;;;;11.38;37.76;101196.66;1666445;85;21152;-70
2021/10/25 11:28:20;;;;;;;9.90;5.37;;;;;;;11.44;37.47;101198.30;1660025;85;21499;-65
2021/10/25 11:30:47;;;;;;;10.40;5.87;;;;;;;11.48;37.43;101197.73;1660784;85;21041;-65
2021/10/25 11:33:17;;;;;;;16.23;5.80;;;;;;;11.43;37.10;101191.66;1666573;85;21122;-70
2021/10/25 11:35:48;;;;;;;9.23;5.62;;;;;;;11.40;36.45;101192.23;1667830;85;21055;-68
2021/10/25 11:38:15;;;;;;;11.38;5.87;;;;;;;11.14;36.34;101186.30;1666462;85;21167;-68
2021/10/25 11:40:42;;;;;;;10.28;5.62;;;;;;;10.82;36.23;101185.61;1638978;85;21074;-67
2021/10/25 11:43:09;;;;;;;13.72;5.90;;;;;;;10.51;36.36;101171.91;1662146;85;21096;-65
2021/10/25 11:45:36;;;;;;;12.43;6.55;;;;;;;10.37;36.91;101182.68;1666455;85;21028;-68
2021/10/25 11:48:02;;;;;;;17.27;6.70;;;;;;;10.49;37.24;101182.41;1664253;85;21043;-67
2021/10/25 11:50:31;;;;;;;9.65;6.25;;;;;;;10.66;38.24;101173.80;1664902;85;21114;-64
2021/10/25 11:53:08;;;;;;;10.45;5.80;;;;;;;10.84;37.88;101177.06;1666376;85;21034;-68
2021/10/25 11:55:41;;;;;;;12.30;6.45;;;;;;;11.02;37.48;101177.55;1641107;85;21559;-67
2021/10/25 11:58:13;;;;;;;14.25;6.47;;;;;;;11.17;37.56;101169.17;1663149;85;21062;-64
2021/10/25 12:00:47;;;;;;;10.20;5.92;;;;;;;11.28;37.52;101164.98;1663749;85;21578;-67
2021/10/25 12:03:20;;;;;;;11.55;6.95;;;;;;;11.37;37.30;101155.56;1659958;85;21153;-68
2021/10/25 12:05:48;;;;;;;12.30;7.22;;;;;;;11.44;36.61;101156.91;1612806;85;20995;-64
2021/10/25 12:08:19;;;;;;;14.00;6.62;;;;;;;11.47;36.44;101153.28;1662646;85;21590;-64
2021/10/25 12:10:48;;;;;;;12.73;6.55;;;;;;;11.46;36.15;101155.78;1656147;85;21559;-67
2021/10/25 12:13:17;;;;;;;15.30;6.67;;;;;;;11.45;36.03;101152.19;1632079;86;21059;-65
2021/10/25 12:15:54;;;;;;;10.93;6.70;;;;;;;11.47;36.12;101147.77;1649751;86;21128;-66
2021/10/25 12:18:20;;;;;;;11.00;6.35;;;;;;;11.51;35.99;101152.45;1649091;86;21372;-67
2021/10/25 12:20:48;;;;;;;17.37;6.95;;;;;;;11.56;36.37;101150.20;1651064;85;21087;-69
2021/10/25 12:23:22;;;;;;;18.45;6.95;;;;;;;11.58;36.60;101148.53;1651648;86;21048;-63
2021/10/25 12:25:59;;;;;;;35.48;8.08;;;;;;;11.60;36.51;101144.93;1648435;86;21512;-68
2021/10/25 12:28:26;;;;;;;17.87;7.40;;;;;;;11.62;36.31;101146.28;1647225;86;21144;-66
2021/10/25 12:31:10;;;;;;;17.52;8.68;;;;;;;11.66;36.36;101146.53;1649988;86;21020;-67
2021/10/25 12:33:38;;;;;;;13.95;7.08;;;;;;;11.72;36.74;101141.80;1650592;86;21072;-64
2021/10/25 12:36:20;;;;;;;19.95;9.33;;;;;;;11.75;36.86;101133.77;1645191;86;21040;-68
2021/10/25 12:38:50;;;;;;;24.25;10.58;;;;;;;11.83;37.18;101134.24;1650595;86;21067;-65
2021/10/25 12:41:19;;;;;;;20.23;8.68;;;;;;;11.91;37.36;101122.02;1649244;86;21973;-65
2021/10/25 12:43:54;;;;;;;18.15;8.78;;;;;;;11.93;36.91;101125.32;1645101;86;21071;-64
2021/10/25 12:46:33;;;;;;;17.20;7.80;;;;;;;11.89;36.76;101122.86;1630431;86;21056;-67
2021/10/25 12:48:57;;;;;;;13.95;7.97;;;;;;;11.90;36.54;101125.08;1648044;85;21062;-69
2021/10/25 12:51:41;;;;;;;15.45;7.40;;;;;;;11.85;36.83;101120.98;1651998;86;21056;-66
2021/10/25 12:54:12;;;;;;;15.13;8.35;;;;;;;11.78;36.52;101119.92;1647186;86;21217;-70
2021/10/25 12:56:39;;;;;;;15.95;7.33;;;;;;;11.72;36.66;101121.90;1628713;86;21588;-69
2021/10/25 12:59:09;;;;;;;17.45;7.87;;;;;;;11.66;36.48;101123.06;1654890;86;21056;-66
2021/10/25 13:01:38;;;;;;;13.32;6.53;;;;;;;11.61;36.35;101118.41;1652158;86;21015;-67
2021/10/25 13:04:05;;;;;;;16.55;7.33;;;;;;;11.61;36.40;101124.48;1629716;86;21105;-65
2021/10/25 13:06:35;;;;;;;15.63;7.37;;;;;;;11.62;36.45;101124.19;1650235;86;21008;-65
2021/10/25 13:09:08;;;;;;;17.67;7.28;;;;;;;11.65;36.81;101122.80;1651948;86;21036;-70
2021/10/25 13:11:36;;;;;;;15.43;6.97;;;;;;;11.64;37.16;101115.07;1661777;85;21007;-66
2021/10/25 13:14:04;;;;;;;12.05;7.72;;;;;;;11.69;37.21;101118.34;1663600;85;21097;-66
2021/10/25 13:16:53;;;;;;;20.55;9.98;;;;;;;11.71;37.11;101110.59;1639961;85;21011;-65
2021/10/25 13:18:59;;;;;;;24.43;10.23;;;;;;;11.66;36.55;101114.23;1660391;85;22794;-69
2021/10/25 13:21:25;;;;;;;21.02;7.58;;;;;;;11.64;36.88;101123.90;1633072;85;21034;-65
2021/10/25 13:23:52;;;;;;;14.63;6.25;;;;;;;11.81;36.83;101116.03;1661672;85;21082;-64
2021/10/25 13:26:18;;;;;;;14.55;8.03;;;;;;;12.13;36.07;101106.92;1665484;85;21063;-69
2021/10/25 13:28:45;;;;;;;18.17;8.48;;;;;;;12.56;36.14;101109.50;1664332;85;21086;-67
2021/10/25 13:31:12;;;;;;;19.95;7.95;;;;;;;13.08;35.73;101106.63;1666695;85;21160;-66
2021/10/25 13:33:40;;;;;;;16.50;7.58;;;;;;;13.63;35.06;101108.86;1666036;85;21003;-66
2021/10/25 13:36:08;;;;;;;21.25;8.08;;;;;;;14.11;34.14;101098.62;1658072;85;22138;-68
2021/10/25 13:38:35;;;;;;;19.82;8.05;;;;;;;14.59;33.53;101097.14;1664877;85;21055;-66
2021/10/25 13:41:02;;;;;;;22.27;10.55;;;;;;;14.94;32.80;101101.69;1666165;85;21022;-69
2021/10/25 13:43:29;;;;;;;17.45;8.83;;;;;;;15.30;32.44;101102.03;1659139;85;21135;-67
2021/10/25 13:45:55;;;;;;;21.62;8.65;;;;;;;15.64;31.35;101097.87;1665114;85;21496;-65
2021/10/25 13:48:21;;;;;;;16.95;7.20;;;;;;;15.88;30.98;101096.69;1666476;85;21055;-66
2021/10/25 13:50:49;;;;;;;17.65;8.25;;;;;;;16.02;30.65;101100.81;1661068;85;21007;-68
2021/10/25 13:53:16;;;;;;;16.35;8.18;;;;;;;16.17;30.54;101091.83;1662311;85;21015;-68
2021/10/25 13:55:44;;;;;;;14.15;7.37;;;;;;;16.32;29.82;101091.96;1661525;85;21003;-67
2021/10/25 13:58:10;;;;;;;19.60;8.08;;;;;;;16.29;29.77;101087.84;1660270;85;21065;-67